createdAt,value
2022-09-29T00:00:58.694Z,78.67
2022-09-29T00:04:08.269Z,78.67
2022-09-29T00:07:11.251Z,78.62
2022-09-29T00:10:14.517Z,78.68
2022-09-29T00:13:18.240Z,78.66
2022-09-29T00:16:21.281Z,78.67
2022-09-29T00:19:25.596Z,78.65
2022-09-29T00:22:28.540Z,78.59
2022-09-29T00:25:31.911Z,78.57
2022-09-29T00:28:36.593Z,78.64
2022-09-29T00:31:39.611Z,78.71
2022-09-29T00:34:42.667Z,78.61
2022-09-29T00:37:45.663Z,78.59
2022-09-29T00:40:48.684Z,78.64
2022-09-29T00:43:57.922Z,78.54
2022-09-29T00:47:03.146Z,78.55
2022-09-29T00:50:22.443Z,78.48
2022-09-29T00:53:27.026Z,78.39
2022-09-29T00:56:31.499Z,78.43
2022-09-29T00:59:46.399Z,78.58
2022-09-29T01:02:54.068Z,78.70
2022-09-29T01:06:03.630Z,78.73
2022-09-29T01:09:14.181Z,78.75
2022-09-29T01:12:17.791Z,78.69
2022-09-29T01:15:23.166Z,78.68
2022-09-29T01:18:26.671Z,78.58
2022-09-29T01:21:29.685Z,78.52
2022-09-29T01:24:41.556Z,78.50
2022-09-29T01:28:05.828Z,78.51
2022-09-29T01:31:22.678Z,78.44
2022-09-29T01:34:44.086Z,78.40
2022-09-29T01:38:22.076Z,78.34
2022-09-29T01:41:47.236Z,78.48
2022-09-29T01:44:58.043Z,78.51
2022-09-29T01:48:17.408Z,78.57
2022-09-29T01:51:29.213Z,78.57
2022-09-29T01:54:50.261Z,78.62
2022-09-29T01:57:54.476Z,78.51
2022-09-29T02:01:00.532Z,78.38
2022-09-29T02:04:13.444Z,78.47
2022-09-29T02:07:34.029Z,78.50
2022-09-29T02:10:46.000Z,78.62
2022-09-29T02:13:57.820Z,78.62
2022-09-29T02:17:19.891Z,78.55
2022-09-29T02:20:23.062Z,78.61
2022-09-29T02:23:26.061Z,78.61
2022-09-29T02:26:34.491Z,78.74
2022-09-29T02:29:39.069Z,78.67
2022-09-29T02:32:42.000Z,78.67
2022-09-29T02:35:50.401Z,78.70
2022-09-29T02:38:59.053Z,78.67
2022-09-29T02:42:25.387Z,78.68
2022-09-29T02:45:49.978Z,78.65
2022-09-29T02:48:52.922Z,78.73
2022-09-29T02:52:00.827Z,78.72
2022-09-29T02:55:19.143Z,78.77
2022-09-29T02:58:32.468Z,78.71
2022-09-29T03:01:35.474Z,78.75
2022-09-29T03:04:38.603Z,78.80
2022-09-29T03:07:42.336Z,78.83
2022-09-29T03:10:45.235Z,78.83
2022-09-29T03:13:48.184Z,78.84
2022-09-29T03:16:51.170Z,78.91
2022-09-29T03:19:54.087Z,78.97
2022-09-29T03:22:57.592Z,79.01
2022-09-29T03:26:00.515Z,79.00
2022-09-29T03:29:03.599Z,78.98
2022-09-29T03:32:07.332Z,78.97
2022-09-29T03:35:10.873Z,78.99
2022-09-29T03:38:13.848Z,79.06
2022-09-29T03:41:16.860Z,79.09
2022-09-29T03:44:19.824Z,79.07
2022-09-29T03:47:22.801Z,79.03
2022-09-29T03:50:25.723Z,79.06
2022-09-29T03:53:28.721Z,79.10
2022-09-29T03:56:31.801Z,79.11
2022-09-29T03:59:34.830Z,79.12
2022-09-29T04:02:37.847Z,79.11
2022-09-29T04:05:40.973Z,79.12
2022-09-29T04:08:43.957Z,79.13
2022-09-29T04:11:46.999Z,79.16
2022-09-29T04:14:50.098Z,79.16
2022-09-29T04:17:53.147Z,79.20
2022-09-29T04:21:00.630Z,79.19
2022-09-29T04:24:03.703Z,79.23
2022-09-29T04:27:06.691Z,79.23
2022-09-29T04:30:10.397Z,79.23
2022-09-29T04:33:13.528Z,79.32
2022-09-29T04:36:16.475Z,79.44
2022-09-29T04:39:19.654Z,79.47
2022-09-29T04:42:22.686Z,79.52
2022-09-29T04:45:25.715Z,79.52
2022-09-29T04:48:30.604Z,79.46
2022-09-29T04:51:36.653Z,79.41
2022-09-29T04:54:39.826Z,79.43
2022-09-29T04:57:44.075Z,79.41
2022-09-29T05:00:47.143Z,79.45
2022-09-29T05:03:50.277Z,79.45
2022-09-29T05:06:53.156Z,79.45
2022-09-29T05:09:56.083Z,79.47
2022-09-29T05:12:59.091Z,79.52
2022-09-29T05:16:03.183Z,79.60
2022-09-29T05:19:06.521Z,79.72
2022-09-29T05:22:09.773Z,79.70
2022-09-29T05:25:12.735Z,79.75
2022-09-29T05:28:15.814Z,79.82
2022-09-29T05:31:19.175Z,79.78
2022-09-29T05:34:22.773Z,79.73
2022-09-29T05:37:25.754Z,79.70
2022-09-29T05:40:28.850Z,79.67
2022-09-29T05:43:31.815Z,79.66
2022-09-29T05:46:35.196Z,79.64
2022-09-29T05:49:39.103Z,79.63
2022-09-29T05:52:42.069Z,79.74
2022-09-29T05:55:45.041Z,79.74
2022-09-29T05:58:48.164Z,79.88
2022-09-29T06:01:51.186Z,79.90
2022-09-29T06:04:54.134Z,79.95
2022-09-29T06:07:57.669Z,79.90
2022-09-29T06:11:09.683Z,79.98
2022-09-29T06:14:12.782Z,80.02
2022-09-29T06:17:16.048Z,80.09
2022-09-29T06:20:19.141Z,80.14
2022-09-29T06:23:22.152Z,80.23
2022-09-29T06:26:26.918Z,80.32
2022-09-29T06:29:30.270Z,80.43
2022-09-29T06:32:34.270Z,80.53
2022-09-29T06:35:56.036Z,80.55
2022-09-29T06:38:59.196Z,80.60
2022-09-29T06:42:03.326Z,80.69
2022-09-29T06:45:07.123Z,80.63
2022-09-29T06:48:11.344Z,80.49
2022-09-29T06:51:14.976Z,80.52
2022-09-29T06:54:20.997Z,80.25
2022-09-29T06:57:24.990Z,79.90
2022-09-29T07:00:28.418Z,80.05
2022-09-29T07:03:32.362Z,79.93
2022-09-29T07:06:35.535Z,79.66
2022-09-29T07:09:38.698Z,79.22
2022-09-29T07:12:44.671Z,79.11
2022-09-29T07:15:48.168Z,79.30
2022-09-29T07:18:51.667Z,79.49
2022-09-29T07:21:54.700Z,79.46
2022-09-29T07:24:58.015Z,79.64
2022-09-29T07:28:01.479Z,79.76
2022-09-29T07:31:14.072Z,79.47
2022-09-29T07:34:19.545Z,79.55
2022-09-29T07:37:22.543Z,79.15
2022-09-29T07:40:28.225Z,79.43
2022-09-29T07:43:32.331Z,79.60
2022-09-29T07:46:35.555Z,79.05
2022-09-29T07:49:38.614Z,78.48
2022-09-29T07:52:41.659Z,79.02
2022-09-29T07:55:44.843Z,78.11
2022-09-29T07:58:52.286Z,77.85
2022-09-29T08:01:56.102Z,78.11
2022-09-29T08:05:03.260Z,78.54
2022-09-29T08:08:08.548Z,78.61
2022-09-29T08:11:29.184Z,78.57
2022-09-29T08:14:35.071Z,78.57
2022-09-29T08:17:38.305Z,78.44
2022-09-29T08:20:41.298Z,78.56
2022-09-29T08:23:44.579Z,78.72
2022-09-29T08:26:47.508Z,78.38
2022-09-29T08:29:51.616Z,78.55
2022-09-29T08:32:55.013Z,78.82
2022-09-29T08:35:58.726Z,78.81
2022-09-29T08:39:01.974Z,78.84
2022-09-29T08:42:43.778Z,78.92
2022-09-29T08:46:00.927Z,78.91
2022-09-29T08:49:11.736Z,78.85
2022-09-29T08:52:19.326Z,78.84
2022-09-29T08:55:40.702Z,78.85
2022-09-29T08:58:44.445Z,78.75
2022-09-29T09:02:10.652Z,78.78
2022-09-29T09:05:44.375Z,79.06
2022-09-29T09:08:53.516Z,78.82
2022-09-29T09:12:17.532Z,78.98
2022-09-29T09:15:39.281Z,79.03
2022-09-29T09:19:11.953Z,78.76
2022-09-29T09:22:21.778Z,78.92
2022-09-29T09:25:39.266Z,78.88
2022-09-29T09:29:04.206Z,78.54
2022-09-29T09:32:12.485Z,78.32
2022-09-29T09:35:36.079Z,78.25
2022-09-29T09:38:53.821Z,78.39
2022-09-29T09:41:59.522Z,78.57
2022-09-29T09:45:14.622Z,78.64
2022-09-29T09:48:32.027Z,79.07
2022-09-29T09:54:51.301Z,79.00
2022-09-29T09:58:31.650Z,78.91
2022-09-29T10:01:34.958Z,78.50
2022-09-29T10:04:38.000Z,78.41
2022-09-29T10:07:41.247Z,78.03
2022-09-29T10:10:57.498Z,77.83
2022-09-29T10:14:14.675Z,77.67
2022-09-29T10:17:23.291Z,77.73
2022-09-29T10:20:34.697Z,77.29
2022-09-29T10:23:38.731Z,77.32
2022-09-29T10:26:48.064Z,77.55
2022-09-29T10:29:53.071Z,77.11
2022-09-29T10:33:01.245Z,77.03
2022-09-29T10:36:11.321Z,77.15
2022-09-29T10:39:44.125Z,76.47
2022-09-29T10:42:51.289Z,76.01
2022-09-29T10:45:58.586Z,76.46
2022-09-29T10:49:19.966Z,76.90
2022-09-29T10:52:28.938Z,76.79
2022-09-29T10:55:47.757Z,76.17
2022-09-29T10:59:05.775Z,76.11
2022-09-29T11:02:21.998Z,74.99
2022-09-29T11:05:25.855Z,73.58
2022-09-29T11:08:28.987Z,72.53
2022-09-29T11:11:35.463Z,73.24
2022-09-29T11:14:38.598Z,73.35
2022-09-29T11:17:50.043Z,74.16
2022-09-29T11:21:04.722Z,73.07
2022-09-29T11:24:23.530Z,71.10
2022-09-29T11:28:00.798Z,72.01
2022-09-29T11:31:15.939Z,71.97
2022-09-29T11:34:52.860Z,71.90
2022-09-29T11:38:17.475Z,71.87
2022-09-29T11:41:39.209Z,71.06
2022-09-29T11:45:03.603Z,71.06
2022-09-29T11:48:54.252Z,69.73
2022-09-29T11:52:18.369Z,68.95
2022-09-29T11:55:41.496Z,70.16
2022-09-29T11:59:24.648Z,70.71
2022-09-29T12:02:59.894Z,71.56
2022-09-29T12:06:05.892Z,71.56
2022-09-29T12:09:30.859Z,72.05
2022-09-29T12:13:16.730Z,72.68
2022-09-29T12:16:28.085Z,73.03
2022-09-29T12:19:38.070Z,73.38
2022-09-29T12:22:45.078Z,73.56
2022-09-29T12:26:13.912Z,73.28
2022-09-29T12:29:37.096Z,73.62
2022-09-29T12:32:51.876Z,73.09
2022-09-29T12:36:04.242Z,73.58
2022-09-29T12:39:12.841Z,74.20
2022-09-29T12:42:40.322Z,74.30
2022-09-29T12:46:10.410Z,74.86
2022-09-29T12:49:23.092Z,75.15
2022-09-29T12:52:56.454Z,74.80
2022-09-29T12:56:05.611Z,74.74
2022-09-29T12:59:23.657Z,74.93
2022-09-29T13:02:47.332Z,75.12
2022-09-29T13:06:05.975Z,74.91
2022-09-29T13:09:30.726Z,74.96
2022-09-29T13:12:55.384Z,75.25
2022-09-29T13:16:14.097Z,75.44
2022-09-29T13:20:00.617Z,75.45
2022-09-29T13:23:18.627Z,75.49
2022-09-29T13:26:34.197Z,75.33
2022-09-29T13:29:48.783Z,75.54
2022-09-29T13:33:00.691Z,75.48
2022-09-29T13:36:04.272Z,75.93
2022-09-29T13:39:20.177Z,76.10
2022-09-29T13:42:28.271Z,76.29
2022-09-29T13:45:34.938Z,76.25
2022-09-29T13:48:46.323Z,75.96
2022-09-29T13:52:16.840Z,75.93
2022-09-29T13:55:51.927Z,75.94
2022-09-29T13:59:00.578Z,76.13
2022-09-29T14:02:20.269Z,76.17
2022-09-29T14:05:23.265Z,75.77
2022-09-29T14:08:30.545Z,74.98
2022-09-29T14:11:33.442Z,75.00
2022-09-29T14:14:44.107Z,74.61
2022-09-29T14:18:00.160Z,74.74
2022-09-29T14:21:06.537Z,74.77
2022-09-29T14:24:34.670Z,74.06
2022-09-29T14:27:51.604Z,74.29
2022-09-29T14:30:57.834Z,74.50
2022-09-29T14:34:02.567Z,74.58
2022-09-29T14:37:07.274Z,74.63
2022-09-29T14:40:40.632Z,74.70
2022-09-29T14:44:09.063Z,74.67
2022-09-29T14:47:40.026Z,74.46
2022-09-29T14:51:36.907Z,74.52
2022-09-29T14:54:55.461Z,74.73
2022-09-29T14:58:15.716Z,74.51
2022-09-29T15:01:26.202Z,74.75
2022-09-29T15:04:29.319Z,74.74
2022-09-29T15:07:41.894Z,74.81
2022-09-29T15:10:44.907Z,74.77
2022-09-29T15:13:47.877Z,74.78
2022-09-29T15:16:57.567Z,74.75
2022-09-29T15:20:08.057Z,74.47
2022-09-29T15:23:32.370Z,74.67
2022-09-29T15:26:35.771Z,74.60
2022-09-29T15:29:39.235Z,74.41
2022-09-29T15:32:44.132Z,74.51
2022-09-29T15:35:52.347Z,74.48
2022-09-29T15:39:02.491Z,74.36
2022-09-29T15:42:23.720Z,74.19
2022-09-29T15:45:28.325Z,74.34
2022-09-29T15:48:31.576Z,74.21
2022-09-29T15:51:36.214Z,74.36
2022-09-29T15:54:44.990Z,74.61
2022-09-29T15:57:55.820Z,74.72
2022-09-29T16:01:07.091Z,74.68
2022-09-29T16:04:11.494Z,74.72
2022-09-29T16:07:30.859Z,74.75
2022-09-29T16:10:39.630Z,74.98
2022-09-29T16:13:54.734Z,75.01
2022-09-29T16:16:57.822Z,75.10
2022-09-29T16:20:01.718Z,75.20
2022-09-29T16:23:25.737Z,75.16
2022-09-29T16:26:31.683Z,75.17
2022-09-29T16:29:36.557Z,75.22
2022-09-29T16:32:42.821Z,75.20
2022-09-29T16:35:56.834Z,75.02
2022-09-29T16:39:01.209Z,75.03
2022-09-29T16:42:09.361Z,75.13
2022-09-29T16:45:17.823Z,75.09
2022-09-29T16:48:22.262Z,75.00
2022-09-29T16:51:38.760Z,75.08
2022-09-29T16:54:47.823Z,75.22
2022-09-29T16:57:55.036Z,75.12
2022-09-29T17:00:58.245Z,75.01
2022-09-29T17:04:01.473Z,74.94
2022-09-29T17:07:04.775Z,74.99
2022-09-29T17:10:17.320Z,75.08
2022-09-29T17:13:21.151Z,75.10
2022-09-29T17:16:25.924Z,75.18
2022-09-29T17:19:29.289Z,75.15
2022-09-29T17:22:39.502Z,75.12
2022-09-29T17:25:45.506Z,75.16
2022-09-29T17:28:49.077Z,75.09
2022-09-29T17:31:53.978Z,74.96
2022-09-29T17:34:56.987Z,75.00
2022-09-29T17:38:00.016Z,74.94
2022-09-29T17:41:06.586Z,74.98
2022-09-29T17:44:10.419Z,74.99
2022-09-29T17:47:27.841Z,75.03
2022-09-29T17:50:36.843Z,75.17
2022-09-29T17:53:41.994Z,75.21
2022-09-29T17:56:45.901Z,75.37
2022-09-29T17:59:48.886Z,75.58
2022-09-29T18:02:57.254Z,75.72
2022-09-29T18:06:00.737Z,75.87
2022-09-29T18:09:14.508Z,75.99
2022-09-29T18:12:17.484Z,76.15
2022-09-29T18:15:21.145Z,76.24
2022-09-29T18:18:24.395Z,76.29
2022-09-29T18:21:27.321Z,76.43
2022-09-29T18:24:31.367Z,76.47
2022-09-29T18:27:35.613Z,76.56
2022-09-29T18:30:41.832Z,76.57
2022-09-29T18:33:44.877Z,76.56
2022-09-29T18:36:47.913Z,76.48
2022-09-29T18:39:50.846Z,76.55
2022-09-29T18:42:56.974Z,76.61
2022-09-29T18:46:01.608Z,76.60
2022-09-29T18:49:04.654Z,76.62
2022-09-29T18:52:09.147Z,76.68
2022-09-29T18:55:12.090Z,76.62
2022-09-29T18:58:20.547Z,76.65
2022-09-29T19:01:27.454Z,76.67
2022-09-29T19:04:30.610Z,76.72
2022-09-29T19:07:35.009Z,76.72
2022-09-29T19:10:38.438Z,76.72
2022-09-29T19:13:41.992Z,76.66
2022-09-29T19:16:45.332Z,76.63
2022-09-29T19:19:50.096Z,76.64
2022-09-29T19:22:55.974Z,76.54
2022-09-29T19:25:59.814Z,76.57
2022-09-29T19:29:03.374Z,76.67
2022-09-29T19:32:06.486Z,76.67
2022-09-29T19:35:13.615Z,76.67
2022-09-29T19:38:17.037Z,76.68
2022-09-29T19:41:22.959Z,76.68
2022-09-29T19:44:26.984Z,76.68
2022-09-29T19:47:30.003Z,76.63
2022-09-29T19:50:51.938Z,76.59
2022-09-29T19:54:10.829Z,76.59
2022-09-29T19:57:16.356Z,76.57
2022-09-29T20:00:21.190Z,76.52
2022-09-29T20:03:24.801Z,76.52
2022-09-29T20:06:29.502Z,76.53
2022-09-29T20:09:33.597Z,76.53
2022-09-29T20:12:37.859Z,76.52
2022-09-29T20:15:45.060Z,76.55
2022-09-29T20:18:49.029Z,76.53
2022-09-29T20:21:53.912Z,76.43
2022-09-29T20:24:58.068Z,76.48
2022-09-29T20:28:01.343Z,76.45
2022-09-29T20:31:07.434Z,76.35
2022-09-29T20:34:11.435Z,76.18
2022-09-29T20:37:18.007Z,76.17
2022-09-29T20:40:20.999Z,76.12
2022-09-29T20:43:24.500Z,76.14
2022-09-29T20:46:28.040Z,76.13
2022-09-29T20:49:31.164Z,76.02
2022-09-29T20:52:34.242Z,75.87
2022-09-29T20:55:37.236Z,75.73
2022-09-29T20:58:44.183Z,75.72
2022-09-29T21:01:48.791Z,75.81
2022-09-29T21:04:52.506Z,75.79
2022-09-29T21:07:55.874Z,75.86
2022-09-29T21:11:02.402Z,75.90
2022-09-29T21:14:08.742Z,75.84
2022-09-29T21:17:11.790Z,75.78
2022-09-29T21:20:14.877Z,75.80
2022-09-29T21:23:18.397Z,75.82
2022-09-29T21:26:24.496Z,75.82
2022-09-29T21:29:28.092Z,75.86
2022-09-29T21:32:31.097Z,75.81
2022-09-29T21:35:34.320Z,75.80
2022-09-29T21:38:39.259Z,75.72
2022-09-29T21:41:43.945Z,75.67
2022-09-29T21:44:46.933Z,75.62
2022-09-29T21:48:22.498Z,75.52
2022-09-29T21:51:28.528Z,75.43
2022-09-29T21:54:31.623Z,75.35
2022-09-29T21:57:35.363Z,75.39
2022-09-29T22:00:39.415Z,75.51
2022-09-29T22:03:45.118Z,75.48
2022-09-29T22:06:48.289Z,75.48
2022-09-29T22:09:51.279Z,75.52
2022-09-29T22:12:54.283Z,75.46
2022-09-29T22:16:10.038Z,75.37
2022-09-29T22:19:29.531Z,75.42
2022-09-29T22:22:32.563Z,75.47
2022-09-29T22:25:41.649Z,75.64
2022-09-29T22:28:45.334Z,75.64
2022-09-29T22:31:48.498Z,75.70
2022-09-29T22:34:52.574Z,75.77
2022-09-29T22:37:55.718Z,75.73
2022-09-29T22:40:58.714Z,75.68
2022-09-29T22:44:02.091Z,75.66
2022-09-29T22:47:05.648Z,75.69
2022-09-29T22:50:09.056Z,75.72
2022-09-29T22:53:13.499Z,75.96
2022-09-29T22:56:19.394Z,76.11
2022-09-29T22:59:22.591Z,76.18
2022-09-29T23:02:25.711Z,76.17
2022-09-29T23:05:29.066Z,76.27
2022-09-29T23:08:34.209Z,76.32
2022-09-29T23:11:37.405Z,76.15
2022-09-29T23:14:40.401Z,76.07
2022-09-29T23:17:43.930Z,76.19
2022-09-29T23:20:47.569Z,76.21
2022-09-29T23:23:56.590Z,76.22
2022-09-29T23:27:00.597Z,76.25
2022-09-29T23:30:03.988Z,76.27
2022-09-29T23:33:07.043Z,76.26
2022-09-29T23:36:12.561Z,76.28
2022-09-29T23:39:15.817Z,76.29
2022-09-29T23:42:18.958Z,76.33
2022-09-29T23:45:22.519Z,76.27
2022-09-29T23:48:26.227Z,76.32
2022-09-29T23:51:32.695Z,76.34
2022-09-29T23:54:35.714Z,76.23
2022-09-29T23:57:38.702Z,76.33
